Kezdőlap
METAR-TAF:

METAR-TAF

Repülőterek :

Chicago Rockford International Airport

Rockford, Illinois, Amerikai Egyesült Államok

földrajzi szélesség: 42-11-34N, földrajzi hosszúság: 089-05-36W, magasság: 224 m

Jelenlegi meteorológiai megfigyelések

A jelentés 34 perccel ezelõtt készült, 09:54 UTC
Szélcsend
Hőmérséklet 1°C
Páratartalom 93%
Légköri nyomás 1017 hPa
Látótávolság: 14.5 km
Derült ég

METAR: KRFD 230954Z 00000KT 9SM CLR 01/00 A3003 RMK AO2 SLP175 T00110000

Idő: 05:28 (10:28 UTC)

Előrejelzés

A jelentés 1 órával és 33 perccel ezelõtt készült, 08:55 UTC
Az előrejelzés 23-én 09 óra UTC és 24-én 06 óra UTC között érvényes
Különbözõ irányokból fújó szél 3 kt
Látótávolság: 10 km
Szórványos felhőzet 25000 lábon
23-én 2100 órától UTC szerint
Kelet-északkeleti szél 4 kt
Látótávolság: 10 km
Szórványos felhőzet 20000 lábon
Szakadozott felhőzet 25000 lábon

TAF: KRFD 230855Z 2309/2406 VRB03KT P6SM SCT250 FM232100 07004KT P6SM SCT200 BKN250

Meteorológiai megfigyelések és előrejelzések több, mint 4000 repülőtéren (METAR és TAF jelentéseket).

A térképen piros és sárga pontok jelzik az elérhető meteorológiai állomásokat.

Mozgassa az egeret a pont fölött, hogy megjelenjen az állomás neve.

Azután kattintson az időjárási megfigyelések és előrejelzések megtekintéséhez.

A térkép megváltoztatása: kattintson a fekete keresztel jelölt zöld gombra ráközelítéshez, a vonallal jelölt zöld gombra távolításhoz, vagy a zöld nyilakra a szomszédos térképek eléréséhez.


METAR-TAF: